Tropical Cyclones
[Index]
Main Index Home Page Stock Weather Photos Extreme Storms Discussion Storm News and Storm Chasing Reports Tropical Cyclones / Hurricanes / Typhoons Weather Data and Links Wild Fires / Bushfires Weather Observation Techniques Weather Picture Catalogue Tornado Pictures and Reports Stock Video Footage and DVDs for sale
Season 2007-2008 Tropical Cyclone HELEN Track Map
Season 2007-2008 Summaries: [BoM-AU] [JTWC-AU] [JTWC-SIO] [JTWC-SPAC] [JTWC-SH]
<<- Previous TC | JTWC 2007-2008 Season | Next TC ->>

click for intensity scale information  Lat/long Grid: Show Hide

 Date Labels: Show Hide

Joint Typhoon Warning Centre Cyclone Data

Name: HELEN

30 Dec 2007 18:00 UTC to 07 Jan 2008 06:00 UTC

    date/time    lat    long     hPa   cat  kts
2007-12-30 18   14.6   134.4    1004         25          
2007-12-31 00   14.9   134.8    1004         25          
2007-12-31 06   15.2   135.0    1004         25          
2007-12-31 12   15.6   135.0    1004         25          
2007-12-31 18   15.9   134.7    1004         25          
2008-01-01 00   16.0   134.3    1007         20          
2008-01-01 06   16.0   133.8    1007         20          
2008-01-01 12   15.7   132.9    1007         20          
2008-01-01 18   15.3   131.9    1007         20          
2008-01-02 00   14.9   130.9     996         20          
2008-01-02 06   14.4   130.0     996         20          
2008-01-02 12   14.1   129.2     996         25          
2008-01-02 18   14.1   128.6    1004         25          
2008-01-03 00   14.2   128.0    1004         25          
2008-01-03 06   14.2   127.9    1000         30          
2008-01-03 12   14.2   127.8     996         35          
2008-01-03 18   14.0   127.7     994         35          
2008-01-04 00   13.4   128.1     996         35          
2008-01-04 06   13.2   128.9     985    1    45          
2008-01-04 12   13.2   129.8     985    1    50          
2008-01-04 12   13.2   129.8     985    1    50          
2008-01-04 18   13.2   130.9     989    1    45          
2008-01-05 00   13.3   132.1     993    1    40          
2008-01-05 06   13.4   133.4    1000         30          
2008-01-05 12   13.6   135.0    1000         30          
2008-01-05 18   13.8   136.6    1000         30          
2008-01-06 00   14.0   138.4    1000         30          
2008-01-06 06   14.2   140.3    1000         30          
2008-01-06 12   14.3   141.4    1004         25          
2008-01-06 18   14.4   142.0    1004         25          
2008-01-07 00   14.6   142.6    1007         20          
2008-01-07 06   14.9   143.4    1007         20          
Winds are 1-min average.

Tropical cyclone tracks developed by Michael Bath using data from the Joint Typhoon Warning Centre Best Tracks and Google Maps.


[Australian Severe Weather index] [Copyright Notice] [Email Contacts] [Search This Site] [Privacy Policy]
Document: tropical_cyclone_helen.htm Updated: 28 June 2017